sensor_id;sensor_type;location;lat;lon;timestamp;P1;P2;P0
47709;PMS7003;33473;51.640;5.892;2022-07-29T00:04:14;0.01;1.97;1.43
47709;PMS7003;33473;51.640;5.892;2022-07-29T00:17:34;0.01;1.64;1.21
47709;PMS7003;33473;51.640;5.892;2022-07-29T00:30:53;0.01;2.3;1.43
47709;PMS7003;33473;51.640;5.892;2022-07-29T00:44:15;0.01;2.19;1.75
47709;PMS7003;33473;51.640;5.892;2022-07-29T00:57:34;0.01;2.84;2.08
47709;PMS7003;33473;51.640;5.892;2022-07-29T01:10:54;0.24;3.39;2.52
47709;PMS7003;33473;51.640;5.892;2022-07-29T01:24:15;1.56;4.15;3.17
47709;PMS7003;33473;51.640;5.892;2022-07-29T01:37:35;1.68;4.59;3.39
47709;PMS7003;33473;51.640;5.892;2022-07-29T01:50:55;1.32;4.26;3.5
47709;PMS7003;33473;51.640;5.892;2022-07-29T02:04:14;2.04;4.91;3.71
47709;PMS7003;33473;51.640;5.892;2022-07-29T02:17:34;2.64;4.8;3.82
47709;PMS7003;33473;51.640;5.892;2022-07-29T02:30:54;4.21;6.88;5.02
47709;PMS7003;33473;51.640;5.892;2022-07-29T02:44:13;3.0;5.9;4.91
47709;PMS7003;33473;51.640;5.892;2022-07-29T02:57:33;3.12;6.11;4.91
47709;PMS7003;33473;51.640;5.892;2022-07-29T03:10:53;3.85;5.79;4.48
47709;PMS7003;33473;51.640;5.892;2022-07-29T03:24:12;3.85;5.68;4.48
47709;PMS7003;33473;51.640;5.892;2022-07-29T03:37:32;3.24;5.68;4.37
47709;PMS7003;33473;51.640;5.892;2022-07-29T03:50:52;3.48;6.44;4.91
47709;PMS7003;33473;51.640;5.892;2022-07-29T04:04:11;4.33;7.09;5.24
47709;PMS7003;33473;51.640;5.892;2022-07-29T04:17:31;5.53;7.2;5.79
47709;PMS7003;33473;51.640;5.892;2022-07-29T04:30:51;4.81;7.64;5.79
47709;PMS7003;33473;51.640;5.892;2022-07-29T04:44:11;4.21;7.09;5.24
47709;PMS7003;33473;51.640;5.892;2022-07-29T04:57:32;3.97;6.88;5.35
47709;PMS7003;33473;51.640;5.892;2022-07-29T05:10:51;4.21;6.99;5.46
47709;PMS7003;33473;51.640;5.892;2022-07-29T05:24:11;5.17;7.64;5.79
47709;PMS7003;33473;51.640;5.892;2022-07-29T05:37:31;5.29;7.97;6.0
47709;PMS7003;33473;51.640;5.892;2022-07-29T05:50:50;6.37;8.08;6.33
47709;PMS7003;33473;51.640;5.892;2022-07-29T06:04:10;5.29;7.86;5.79
47709;PMS7003;33473;51.640;5.892;2022-07-29T06:17:30;7.93;8.84;6.66
47709;PMS7003;33473;51.640;5.892;2022-07-29T06:30:50;6.49;8.51;6.66
47709;PMS7003;33473;51.640;5.892;2022-07-29T06:44:09;6.85;8.4;6.55
47709;PMS7003;33473;51.640;5.892;2022-07-29T06:57:29;6.49;8.95;7.09
47709;PMS7003;33473;51.640;5.892;2022-07-29T07:10:50;6.25;8.73;6.55
47709;PMS7003;33473;51.640;5.892;2022-07-29T07:24:10;8.41;10.04;7.42
47709;PMS7003;33473;51.640;5.892;2022-07-29T07:37:29;8.65;10.26;7.42
47709;PMS7003;33473;51.640;5.892;2022-07-29T07:50:49;7.21;9.49;6.99
47709;PMS7003;33473;51.640;5.892;2022-07-29T08:04:09;8.65;11.13;8.18
47709;PMS7003;33473;51.640;5.892;2022-07-29T08:17:28;6.61;8.51;6.88
47709;PMS7003;33473;51.640;5.892;2022-07-29T08:30:48;7.69;8.84;6.44
47709;PMS7003;33473;51.640;5.892;2022-07-29T08:44:08;7.09;9.38;7.09
47709;PMS7003;33473;51.640;5.892;2022-07-29T08:57:28;6.97;9.49;7.09
47709;PMS7003;33473;51.640;5.892;2022-07-29T09:10:47;5.53;7.86;6.22
47709;PMS7003;33473;51.640;5.892;2022-07-29T09:24:07;4.93;7.53;6.0
47709;PMS7003;33473;51.640;5.892;2022-07-29T09:37:27;6.73;8.51;6.66
47709;PMS7003;33473;51.640;5.892;2022-07-29T09:50:46;5.77;8.08;6.33
47709;PMS7003;33473;51.640;5.892;2022-07-29T10:04:06;4.93;6.88;5.46
47709;PMS7003;33473;51.640;5.892;2022-07-29T10:17:26;4.93;6.88;5.68
47709;PMS7003;33473;51.640;5.892;2022-07-29T10:30:45;3.73;6.44;5.24
47709;PMS7003;33473;51.640;5.892;2022-07-29T10:44:05;4.57;7.31;5.9
47709;PMS7003;33473;51.640;5.892;2022-07-29T10:57:25;3.85;6.66;5.57
47709;PMS7003;33473;51.640;5.892;2022-07-29T11:10:44;3.48;6.44;5.35
47709;PMS7003;33473;51.640;5.892;2022-07-29T11:24:04;6.37;8.08;6.44
47709;PMS7003;33473;51.640;5.892;2022-07-29T11:37:24;4.93;7.2;5.9
47709;PMS7003;33473;51.640;5.892;2022-07-29T11:50:44;5.29;7.97;6.11
47709;PMS7003;33473;51.640;5.892;2022-07-29T12:04:03;4.09;6.88;5.57
47709;PMS7003;33473;51.640;5.892;2022-07-29T12:17:23;3.24;6.0;4.8
47709;PMS7003;33473;51.640;5.892;2022-07-29T12:30:43;3.0;4.48;3.82
47709;PMS7003;33473;51.640;5.892;2022-07-29T12:44:02;2.4;5.46;4.26
47709;PMS7003;33473;51.640;5.892;2022-07-29T12:57:22;1.92;4.8;3.71
47709;PMS7003;33473;51.640;5.892;2022-07-29T13:10:42;0.36;3.61;3.06
47709;PMS7003;33473;51.640;5.892;2022-07-29T13:24:01;2.16;4.15;3.39
47709;PMS7003;33473;51.640;5.892;2022-07-29T13:37:21;1.2;4.04;3.39
47709;PMS7003;33473;51.640;5.892;2022-07-29T13:50:41;1.2;4.37;3.39
47709;PMS7003;33473;51.640;5.892;2022-07-29T14:04:01;1.68;4.59;3.71
47709;PMS7003;33473;51.640;5.892;2022-07-29T14:17:20;1.2;4.04;3.17
47709;PMS7003;33473;51.640;5.892;2022-07-29T14:30:40;0.01;3.06;2.52
47709;PMS7003;33473;51.640;5.892;2022-07-29T14:44:00;0.01;2.73;2.41
47709;PMS7003;33473;51.640;5.892;2022-07-29T14:57:19;0.36;3.39;2.41
47709;PMS7003;33473;51.640;5.892;2022-07-29T15:10:39;0.0;3.28;2.62
47709;PMS7003;33473;51.640;5.892;2022-07-29T15:23:59;0.72;3.71;3.28
47709;PMS7003;33473;51.640;5.892;2022-07-29T15:37:19;1.08;4.26;3.28
47709;PMS7003;33473;51.640;5.892;2022-07-29T15:50:38;2.88;4.8;3.82
47709;PMS7003;33473;51.640;5.892;2022-07-29T16:03:59;1.08;3.71;2.95
47709;PMS7003;33473;51.640;5.892;2022-07-29T16:17:19;2.52;3.71;3.06
47709;PMS7003;33473;51.640;5.892;2022-07-29T16:30:39;1.08;4.26;3.39
47709;PMS7003;33473;51.640;5.892;2022-07-29T16:44:00;2.04;4.91;3.93
47709;PMS7003;33473;51.640;5.892;2022-07-29T16:57:20;3.48;5.02;3.82
47709;PMS7003;33473;51.640;5.892;2022-07-29T17:10:39;1.92;4.37;3.5
47709;PMS7003;33473;51.640;5.892;2022-07-29T17:23:59;2.76;5.02;3.93
47709;PMS7003;33473;51.640;5.892;2022-07-29T17:37:19;2.28;4.37;3.61
47709;PMS7003;33473;51.640;5.892;2022-07-29T17:50:38;1.8;4.26;3.39
47709;PMS7003;33473;51.640;5.892;2022-07-29T18:03:58;0.96;4.04;3.17
47709;PMS7003;33473;51.640;5.892;2022-07-29T18:17:18;1.32;4.04;3.39
47709;PMS7003;33473;51.640;5.892;2022-07-29T18:30:38;2.52;4.91;3.82
47709;PMS7003;33473;51.640;5.892;2022-07-29T18:43:57;2.16;5.02;3.93
47709;PMS7003;33473;51.640;5.892;2022-07-29T18:57:17;2.04;5.02;3.82
47709;PMS7003;33473;51.640;5.892;2022-07-29T19:10:37;3.85;5.79;4.7
47709;PMS7003;33473;51.640;5.892;2022-07-29T19:23:56;3.6;5.02;4.04
47709;PMS7003;33473;51.640;5.892;2022-07-29T19:37:16;2.04;4.26;3.71
47709;PMS7003;33473;51.640;5.892;2022-07-29T19:50:36;4.21;6.33;5.24
47709;PMS7003;33473;51.640;5.892;2022-07-29T20:03:56;4.57;6.88;5.46
47709;PMS7003;33473;51.640;5.892;2022-07-29T20:17:17;5.53;8.08;6.44
47709;PMS7003;33473;51.640;5.892;2022-07-29T20:30:36;7.09;9.38;6.99
47709;PMS7003;33473;51.640;5.892;2022-07-29T20:43:56;6.73;8.84;7.09
47709;PMS7003;33473;51.640;5.892;2022-07-29T20:57:16;8.17;9.82;7.53
47709;PMS7003;33473;51.640;5.892;2022-07-29T21:10:35;8.53;10.04;7.53
47709;PMS7003;33473;51.640;5.892;2022-07-29T21:23:55;10.69;11.24;8.73
47709;PMS7003;33473;51.640;5.892;2022-07-29T21:37:15;10.09;11.78;9.49
47709;PMS7003;33473;51.640;5.892;2022-07-29T21:50:35;9.49;11.89;9.17
47709;PMS7003;33473;51.640;5.892;2022-07-29T22:03:54;9.97;12.22;9.71
47709;PMS7003;33473;51.640;5.892;2022-07-29T22:17:14;11.29;13.53;10.36
47709;PMS7003;33473;51.640;5.892;2022-07-29T22:30:34;12.13;14.07;10.36
47709;PMS7003;33473;51.640;5.892;2022-07-29T22:43:53;12.13;14.29;10.8
47709;PMS7003;33473;51.640;5.892;2022-07-29T22:57:13;12.01;13.96;10.58
47709;PMS7003;33473;51.640;5.892;2022-07-29T23:10:33;10.57;12.65;9.82
47709;PMS7003;33473;51.640;5.892;2022-07-29T23:23:52;9.73;11.78;9.17
47709;PMS7003;33473;51.640;5.892;2022-07-29T23:37:12;10.45;12.54;9.27
47709;PMS7003;33473;51.640;5.892;2022-07-29T23:50:33;12.13;13.53;10.58
